createdAt,value
2018-05-21T00:00:09.751Z,16.62
2018-05-21T00:01:09.727Z,16.63
2018-05-21T00:02:09.749Z,16.64
2018-05-21T00:03:09.731Z,16.63
2018-05-21T00:04:09.763Z,16.64
2018-05-21T00:05:09.757Z,16.62
2018-05-21T00:06:09.785Z,16.63
2018-05-21T00:07:09.758Z,16.63
2018-05-21T00:08:09.755Z,16.64
2018-05-21T00:09:09.773Z,16.63
2018-05-21T00:10:09.741Z,16.64
2018-05-21T00:11:09.848Z,16.66
2018-05-21T00:12:09.725Z,16.63
2018-05-21T00:13:09.765Z,16.64
2018-05-21T00:14:09.728Z,16.66
2018-05-21T00:15:09.796Z,16.66
2018-05-21T00:16:09.775Z,16.64
2018-05-21T00:17:09.750Z,16.63
2018-05-21T00:18:09.742Z,16.64
2018-05-21T00:19:09.748Z,16.63
2018-05-21T00:20:09.751Z,16.64
2018-05-21T00:21:09.888Z,16.64
2018-05-21T00:22:09.764Z,16.63
2018-05-21T00:23:09.766Z,16.62
2018-05-21T00:24:09.733Z,16.62
2018-05-21T00:25:09.737Z,16.6
2018-05-21T00:26:09.742Z,16.6
2018-05-21T00:27:09.757Z,16.62
2018-05-21T00:28:09.757Z,16.6
2018-05-21T00:29:09.788Z,16.59
2018-05-21T00:30:09.759Z,16.6
2018-05-21T00:31:09.790Z,16.62
2018-05-21T00:32:09.781Z,16.59
2018-05-21T00:33:09.760Z,16.6
2018-05-21T00:34:09.755Z,16.6
2018-05-21T00:35:09.815Z,16.57
2018-05-21T00:36:09.756Z,16.6
2018-05-21T00:37:09.766Z,16.59
2018-05-21T00:38:09.751Z,16.56
2018-05-21T00:39:09.781Z,16.6
2018-05-21T00:40:09.742Z,16.57
2018-05-21T00:41:09.769Z,16.59
2018-05-21T00:42:09.743Z,16.56
2018-05-21T00:43:09.742Z,16.57
2018-05-21T00:44:09.774Z,16.57
2018-05-21T00:45:09.830Z,16.59
2018-05-21T00:46:09.743Z,16.57
2018-05-21T00:47:09.756Z,16.6
2018-05-21T00:48:09.763Z,16.6
2018-05-21T00:49:09.779Z,16.6
2018-05-21T00:50:09.775Z,16.59
2018-05-21T00:51:09.802Z,16.63
2018-05-21T00:52:09.771Z,16.6
2018-05-21T00:53:09.866Z,16.62
2018-05-21T00:54:09.784Z,16.64
2018-05-21T00:55:09.801Z,16.63
2018-05-21T00:56:09.852Z,16.62
2018-05-21T00:57:09.764Z,16.6
2018-05-21T00:58:10.077Z,16.6
2018-05-21T00:59:09.872Z,16.6
2018-05-21T01:00:09.777Z,16.57
2018-05-21T01:01:09.967Z,16.6
2018-05-21T01:02:09.791Z,16.59
2018-05-21T01:03:09.773Z,16.6
2018-05-21T01:04:09.776Z,16.59
2018-05-21T01:05:09.840Z,16.59
2018-05-21T01:06:09.764Z,16.59
2018-05-21T01:07:09.922Z,16.59
2018-05-21T01:08:09.777Z,16.59
2018-05-21T01:09:09.960Z,16.57
2018-05-21T01:10:09.829Z,16.57
2018-05-21T01:11:09.867Z,16.57
2018-05-21T01:12:09.775Z,16.6
2018-05-21T01:13:09.790Z,16.6
2018-05-21T01:14:09.766Z,16.59
2018-05-21T01:15:09.971Z,16.59
2018-05-21T01:16:09.821Z,16.59
2018-05-21T01:17:09.775Z,16.6
2018-05-21T01:18:09.756Z,16.59
2018-05-21T01:19:09.964Z,16.59
2018-05-21T01:20:10.025Z,16.59
2018-05-21T01:21:09.793Z,16.59
2018-05-21T01:22:09.805Z,16.59
2018-05-21T01:23:09.791Z,16.62
2018-05-21T01:24:09.963Z,16.59
2018-05-21T01:25:09.833Z,16.6
2018-05-21T01:26:09.866Z,16.57
2018-05-21T01:27:09.790Z,16.57
2018-05-21T01:28:09.777Z,16.59
2018-05-21T01:29:09.773Z,16.6
2018-05-21T01:30:09.791Z,16.57
2018-05-21T01:31:09.772Z,16.57
2018-05-21T01:32:09.780Z,16.57
2018-05-21T01:33:09.897Z,16.59
2018-05-21T01:34:09.761Z,16.56
2018-05-21T01:35:09.791Z,16.56
2018-05-21T01:36:09.776Z,16.6
2018-05-21T01:37:09.778Z,16.59
2018-05-21T01:38:09.763Z,16.59
2018-05-21T01:39:09.771Z,16.57
2018-05-21T01:40:09.769Z,16.56
2018-05-21T01:41:09.774Z,16.56
2018-05-21T01:42:09.789Z,16.53
2018-05-21T01:43:09.820Z,16.54
2018-05-21T01:44:09.817Z,16.56
2018-05-21T01:45:09.793Z,16.57
2018-05-21T01:46:09.757Z,16.53
2018-05-21T01:47:09.789Z,16.53
2018-05-21T01:48:09.772Z,16.52
2018-05-21T01:49:09.796Z,16.5
2018-05-21T01:50:09.795Z,16.52
2018-05-21T01:51:09.808Z,16.52
2018-05-21T01:52:09.776Z,16.5
2018-05-21T01:53:09.774Z,16.46
2018-05-21T01:54:09.772Z,16.5
2018-05-21T01:55:09.807Z,16.46
2018-05-21T01:56:10.062Z,16.45
2018-05-21T01:57:09.925Z,16.45
2018-05-21T01:58:09.857Z,16.43
2018-05-21T01:59:09.820Z,16.46
2018-05-21T02:00:09.777Z,16.43
2018-05-21T02:01:09.784Z,16.43
2018-05-21T02:02:09.918Z,16.42
2018-05-21T02:03:09.829Z,16.43
2018-05-21T02:04:09.785Z,16.4
2018-05-21T02:05:09.910Z,16.39
2018-05-21T02:06:09.801Z,16.39
2018-05-21T02:07:09.927Z,16.39
2018-05-21T02:08:09.912Z,16.36
2018-05-21T02:09:09.792Z,16.39
2018-05-21T02:10:09.793Z,16.39
2018-05-21T02:11:09.945Z,16.36
2018-05-21T02:12:09.800Z,16.36
2018-05-21T02:13:09.831Z,16.36
2018-05-21T02:14:09.865Z,16.32
2018-05-21T02:15:09.878Z,16.31
2018-05-21T02:16:09.956Z,16.32
2018-05-21T02:17:09.807Z,16.32
2018-05-21T02:18:09.931Z,16.33
2018-05-21T02:19:09.904Z,16.32
2018-05-21T02:20:10.071Z,16.32
2018-05-21T02:21:09.927Z,16.29
2018-05-21T02:22:09.920Z,16.31
2018-05-21T02:23:10.343Z,16.32
2018-05-21T02:24:09.829Z,16.31
2018-05-21T02:25:09.807Z,16.31
2018-05-21T02:26:09.790Z,16.31
2018-05-21T02:27:09.938Z,16.31
2018-05-21T02:28:09.947Z,16.29
2018-05-21T02:29:09.874Z,16.29
2018-05-21T02:30:09.846Z,16.28
2018-05-21T02:31:09.816Z,16.32
2018-05-21T02:32:09.880Z,16.29
2018-05-21T02:33:09.920Z,16.29
2018-05-21T02:34:09.814Z,16.31
2018-05-21T02:35:09.926Z,16.31
2018-05-21T02:36:09.931Z,16.31
2018-05-21T02:37:09.885Z,16.29
2018-05-21T02:38:09.856Z,16.29
2018-05-21T02:39:09.925Z,16.31
2018-05-21T02:40:09.839Z,16.29
2018-05-21T02:41:09.937Z,16.28
2018-05-21T02:42:09.809Z,16.29
2018-05-21T02:43:09.865Z,16.28
2018-05-21T02:44:09.839Z,16.28
2018-05-21T02:45:10.080Z,16.24
2018-05-21T02:46:09.926Z,16.25
2018-05-21T02:47:09.823Z,16.25
2018-05-21T02:48:09.802Z,16.25
2018-05-21T02:49:09.807Z,16.24
2018-05-21T02:50:09.867Z,16.24
2018-05-21T02:51:09.823Z,16.22
2018-05-21T02:52:09.802Z,16.21
2018-05-21T02:53:09.834Z,16.21
2018-05-21T02:54:09.935Z,16.18
2018-05-21T02:55:09.813Z,16.21
2018-05-21T02:56:09.816Z,16.21
2018-05-21T02:57:09.916Z,16.16
2018-05-21T02:58:09.835Z,16.18
2018-05-21T02:59:09.821Z,16.16
2018-05-21T03:00:09.802Z,16.15
2018-05-21T03:01:09.817Z,16.15
2018-05-21T03:02:09.822Z,16.14
2018-05-21T03:03:09.822Z,16.14
2018-05-21T03:04:09.818Z,16.11
2018-05-21T03:05:09.814Z,16.11
2018-05-21T03:06:09.844Z,16.11
2018-05-21T03:07:09.896Z,16.09
2018-05-21T03:08:09.936Z,16.11
2018-05-21T03:09:09.893Z,16.09
2018-05-21T03:10:09.835Z,16.09
2018-05-21T03:11:09.833Z,16.07
2018-05-21T03:12:09.836Z,16.05
2018-05-21T03:13:10.006Z,16.08
2018-05-21T03:14:09.985Z,16.08
2018-05-21T03:15:09.860Z,16.08
2018-05-21T03:16:09.954Z,16.07
2018-05-21T03:17:09.890Z,16.04
2018-05-21T03:18:09.831Z,16.04
2018-05-21T03:19:09.944Z,16.04
2018-05-21T03:20:09.818Z,16.04
2018-05-21T03:21:09.885Z,16.04
2018-05-21T03:22:09.828Z,16.02
2018-05-21T03:23:09.846Z,16.01
2018-05-21T03:24:09.979Z,16.02
2018-05-21T03:25:09.846Z,16.01
2018-05-21T03:26:09.853Z,16.02
2018-05-21T03:27:09.916Z,15.99
2018-05-21T03:28:09.871Z,16.01
2018-05-21T03:29:09.947Z,16.01
2018-05-21T03:30:09.830Z,15.98
2018-05-21T03:31:09.952Z,16.01
2018-05-21T03:32:09.960Z,15.97
2018-05-21T03:33:09.888Z,15.99
2018-05-21T03:34:09.928Z,15.99
2018-05-21T03:35:10.063Z,16.01
2018-05-21T03:36:09.958Z,16.02
2018-05-21T03:37:09.823Z,15.98
2018-05-21T03:38:09.991Z,16.01
2018-05-21T03:39:09.937Z,15.98
2018-05-21T03:40:09.920Z,15.98
2018-05-21T03:41:09.890Z,15.98
2018-05-21T03:42:09.865Z,15.99
2018-05-21T03:43:09.925Z,15.99
2018-05-21T03:44:09.898Z,15.98
2018-05-21T03:45:09.974Z,15.97
2018-05-21T03:46:09.901Z,15.95
2018-05-21T03:47:09.884Z,15.97
2018-05-21T03:48:09.870Z,15.97
2018-05-21T03:49:09.956Z,15.97
2018-05-21T03:50:09.876Z,15.97
2018-05-21T03:51:09.853Z,15.98
2018-05-21T03:52:09.841Z,15.95
2018-05-21T03:53:09.910Z,15.97
2018-05-21T03:54:09.954Z,15.95
2018-05-21T03:55:09.923Z,15.97
2018-05-21T03:56:09.915Z,15.94
2018-05-21T03:57:09.861Z,15.95
2018-05-21T03:58:09.836Z,15.95
2018-05-21T03:59:09.858Z,15.95
2018-05-21T04:00:09.845Z,15.92
2018-05-21T04:01:09.854Z,15.92
2018-05-21T04:02:09.826Z,15.94
2018-05-21T04:03:09.837Z,15.94
2018-05-21T04:04:09.880Z,15.94
2018-05-21T04:05:09.846Z,15.97
2018-05-21T04:06:09.832Z,15.95
2018-05-21T04:07:10.034Z,15.97
2018-05-21T04:08:09.849Z,15.92
2018-05-21T04:09:09.843Z,15.95
2018-05-21T04:10:09.854Z,15.95
2018-05-21T04:11:09.836Z,15.97
2018-05-21T04:12:09.863Z,15.94
2018-05-21T04:13:09.889Z,15.97
2018-05-21T04:14:09.860Z,15.95
2018-05-21T04:15:09.956Z,15.97
2018-05-21T04:16:09.843Z,15.98
2018-05-21T04:17:09.858Z,15.94
2018-05-21T04:18:09.841Z,15.94
2018-05-21T04:19:09.881Z,15.95
2018-05-21T04:20:09.906Z,15.94
2018-05-21T04:21:09.975Z,15.98
2018-05-21T04:22:09.850Z,15.97
2018-05-21T04:23:09.978Z,15.98
2018-05-21T04:24:10.006Z,15.99
2018-05-21T04:25:09.950Z,15.95
2018-05-21T04:26:09.907Z,15.95
2018-05-21T04:27:10.050Z,15.95
2018-05-21T04:28:09.953Z,15.97
2018-05-21T04:29:09.879Z,15.97
2018-05-21T04:30:09.918Z,15.98
2018-05-21T04:31:09.941Z,15.97
2018-05-21T04:32:09.941Z,15.99
2018-05-21T04:33:09.935Z,15.98
2018-05-21T04:34:09.963Z,15.98
2018-05-21T04:35:09.929Z,15.99
2018-05-21T04:36:09.915Z,15.98
2018-05-21T04:37:09.966Z,16.01
2018-05-21T04:38:10.076Z,15.98
2018-05-21T04:39:09.980Z,15.99
2018-05-21T04:40:09.991Z,15.99
2018-05-21T04:41:09.918Z,15.99
2018-05-21T04:42:09.882Z,15.99
2018-05-21T04:43:09.974Z,15.98
2018-05-21T04:44:10.004Z,15.99
2018-05-21T04:45:10.006Z,16.02
2018-05-21T04:46:09.955Z,16.01
2018-05-21T04:47:10.013Z,16.01
2018-05-21T04:48:09.892Z,16.01
2018-05-21T04:49:09.869Z,16.01
2018-05-21T04:50:10.046Z,16.02
2018-05-21T04:51:09.945Z,16.02
2018-05-21T04:52:09.952Z,16.05
2018-05-21T04:53:09.963Z,16.01
2018-05-21T04:54:09.874Z,15.99
2018-05-21T04:55:09.940Z,16.02
2018-05-21T04:56:09.950Z,16.04
2018-05-21T04:57:09.996Z,16.05
2018-05-21T04:58:09.897Z,16.02
2018-05-21T04:59:09.989Z,16.05
2018-05-21T05:00:09.977Z,16.05
2018-05-21T05:01:09.873Z,16.05
2018-05-21T05:02:09.929Z,16.07
2018-05-21T05:03:09.942Z,16.05
2018-05-21T05:04:09.887Z,16.05
2018-05-21T05:05:09.994Z,16.07
2018-05-21T05:06:09.931Z,16.05
2018-05-21T05:07:10.054Z,16.07
2018-05-21T05:08:09.872Z,16.08
2018-05-21T05:09:09.909Z,16.08
2018-05-21T05:10:09.888Z,16.09
2018-05-21T05:11:09.888Z,16.09
2018-05-21T05:12:09.876Z,16.12
2018-05-21T05:13:09.875Z,16.11
2018-05-21T05:14:09.934Z,16.14
2018-05-21T05:15:09.948Z,16.12
2018-05-21T05:16:09.914Z,16.14
2018-05-21T05:17:09.904Z,16.15
2018-05-21T05:18:09.890Z,16.16
2018-05-21T05:19:09.874Z,16.15
2018-05-21T05:20:09.876Z,16.18
2018-05-21T05:21:10.223Z,16.16
2018-05-21T05:22:09.939Z,16.16
2018-05-21T05:23:09.894Z,16.19
2018-05-21T05:24:09.944Z,16.19
2018-05-21T05:25:09.901Z,16.19
2018-05-21T05:26:09.895Z,16.21
2018-05-21T05:27:09.961Z,16.22
2018-05-21T05:28:09.949Z,16.25
2018-05-21T05:29:09.885Z,16.25
2018-05-21T05:30:09.942Z,16.26
2018-05-21T05:31:10.018Z,16.25
2018-05-21T05:32:09.891Z,16.25
2018-05-21T05:33:09.901Z,16.26
2018-05-21T05:34:09.935Z,16.26
2018-05-21T05:35:09.942Z,16.26
2018-05-21T05:36:09.950Z,16.28
2018-05-21T05:37:09.886Z,16.29
2018-05-21T05:38:09.888Z,16.29
2018-05-21T05:39:09.979Z,16.29
2018-05-21T05:40:09.960Z,16.33
2018-05-21T05:41:09.982Z,16.36
2018-05-21T05:42:10.308Z,16.35
2018-05-21T05:43:10.625Z,16.36
2018-05-21T05:44:10.023Z,16.37
2018-05-21T05:45:09.958Z,16.36
2018-05-21T05:46:09.947Z,16.37
2018-05-21T05:47:09.955Z,16.39
2018-05-21T05:48:09.899Z,16.42
2018-05-21T05:49:09.920Z,16.42
2018-05-21T05:50:09.923Z,16.42
2018-05-21T05:51:09.926Z,16.42
2018-05-21T05:52:09.973Z,16.46
2018-05-21T05:53:10.031Z,16.47
2018-05-21T05:54:09.910Z,16.47
2018-05-21T05:55:09.940Z,16.5
2018-05-21T05:56:10.002Z,16.52
2018-05-21T05:57:09.953Z,16.52
2018-05-21T05:58:09.972Z,16.53
2018-05-21T05:59:10.055Z,16.56
2018-05-21T06:00:09.953Z,16.57
2018-05-21T06:01:09.924Z,16.6
2018-05-21T06:02:09.948Z,16.6
2018-05-21T06:03:09.932Z,16.64
2018-05-21T06:04:09.956Z,16.66
2018-05-21T06:05:09.940Z,16.66
2018-05-21T06:06:09.938Z,16.7
2018-05-21T06:07:10.161Z,16.71
2018-05-21T06:08:09.937Z,16.73
2018-05-21T06:09:09.956Z,16.73
2018-05-21T06:10:09.949Z,16.73
2018-05-21T06:11:09.893Z,16.74
2018-05-21T06:12:09.898Z,16.78
2018-05-21T06:13:09.957Z,16.8
2018-05-21T06:14:09.918Z,16.83
2018-05-21T06:15:09.937Z,16.83
2018-05-21T06:16:09.924Z,16.86
2018-05-21T06:17:09.936Z,16.86
2018-05-21T06:18:09.928Z,16.86
2018-05-21T06:19:09.935Z,16.9
2018-05-21T06:20:09.954Z,16.9
2018-05-21T06:21:09.964Z,16.9
2018-05-21T06:22:09.930Z,16.92
2018-05-21T06:23:09.924Z,16.94
2018-05-21T06:24:09.939Z,16.94
2018-05-21T06:25:09.918Z,16.97
2018-05-21T06:26:09.951Z,16.97
2018-05-21T06:27:09.932Z,16.95
2018-05-21T06:28:09.934Z,16.97
2018-05-21T06:29:09.963Z,16.98
2018-05-21T06:30:09.941Z,16.99
2018-05-21T06:31:09.965Z,17.01
2018-05-21T06:32:09.935Z,16.99
2018-05-21T06:33:09.940Z,17.02
2018-05-21T06:34:10.533Z,17.07
2018-05-21T06:35:10.009Z,17.08
2018-05-21T06:36:09.929Z,17.09
2018-05-21T06:37:09.960Z,17.12
2018-05-21T06:38:09.973Z,17.11
2018-05-21T06:39:09.979Z,17.14
2018-05-21T06:40:10.014Z,17.19
2018-05-21T06:41:10.223Z,17.21
2018-05-21T06:42:09.945Z,17.22
2018-05-21T06:43:09.927Z,17.25
2018-05-21T06:44:10.912Z,17.23
2018-05-21T06:45:09.952Z,17.25
2018-05-21T06:46:09.923Z,17.25
2018-05-21T06:47:10.075Z,17.29
2018-05-21T06:48:10.022Z,17.27
2018-05-21T06:49:10.014Z,17.33
2018-05-21T06:50:09.982Z,17.32
2018-05-21T06:51:10.042Z,17.35
2018-05-21T06:52:10.120Z,17.35
2018-05-21T06:53:09.974Z,17.39
2018-05-21T06:54:10.010Z,17.4
2018-05-21T06:55:09.990Z,17.4
2018-05-21T06:56:10.076Z,17.43
2018-05-21T06:57:10.114Z,17.43
2018-05-21T06:58:09.956Z,17.46
2018-05-21T06:59:09.951Z,17.47
2018-05-21T07:00:10.028Z,17.5
2018-05-21T07:01:09.965Z,17.53
2018-05-21T07:02:09.966Z,17.52
2018-05-21T07:03:09.990Z,17.54
2018-05-21T07:04:10.084Z,17.54
2018-05-21T07:05:09.995Z,17.56
2018-05-21T07:06:09.967Z,17.54
2018-05-21T07:07:10.176Z,17.61
2018-05-21T07:08:09.991Z,17.64
2018-05-21T07:09:09.969Z,17.66
2018-05-21T07:10:09.970Z,17.7
2018-05-21T07:11:09.989Z,17.7
2018-05-21T07:12:10.096Z,17.71
2018-05-21T07:13:09.954Z,17.77
2018-05-21T07:14:10.022Z,17.8
2018-05-21T07:15:10.074Z,17.82
2018-05-21T07:16:10.091Z,17.84
2018-05-21T07:17:09.965Z,17.84
2018-05-21T07:18:10.227Z,17.88
2018-05-21T07:19:10.016Z,17.91
2018-05-21T07:20:10.004Z,17.94
2018-05-21T07:21:09.945Z,17.94
2018-05-21T07:22:09.997Z,17.99
2018-05-21T07:23:09.981Z,18.01
2018-05-21T07:24:09.965Z,18.02
2018-05-21T07:25:10.030Z,18.08
2018-05-21T07:26:09.957Z,18.08
2018-05-21T07:27:09.970Z,18.11
2018-05-21T07:28:09.993Z,18.13
2018-05-21T07:29:10.004Z,18.17
2018-05-21T07:30:09.950Z,18.19
2018-05-21T07:31:10.056Z,18.22
2018-05-21T07:32:10.018Z,18.23
2018-05-21T07:33:09.958Z,18.26
2018-05-21T07:34:09.984Z,18.27
2018-05-21T07:35:09.962Z,18.32
2018-05-21T07:36:09.959Z,18.36
2018-05-21T07:37:09.972Z,18.36
2018-05-21T07:38:09.947Z,18.43
2018-05-21T07:39:09.976Z,18.42
2018-05-21T07:40:09.963Z,18.42
2018-05-21T07:41:09.962Z,18.44
2018-05-21T07:42:09.985Z,18.46
2018-05-21T07:43:10.070Z,18.49
2018-05-21T07:44:09.942Z,18.52
2018-05-21T07:45:10.016Z,18.57
2018-05-21T07:46:09.999Z,18.59
2018-05-21T07:47:09.960Z,18.6
2018-05-21T07:48:10.181Z,18.61
2018-05-21T07:49:09.963Z,18.64
2018-05-21T07:50:09.987Z,18.7
2018-05-21T07:51:09.976Z,18.75
2018-05-21T07:52:09.981Z,18.75
2018-05-21T07:53:10.040Z,18.78
2018-05-21T07:54:09.953Z,18.75
2018-05-21T07:55:09.962Z,18.8
2018-05-21T07:56:10.176Z,18.85
2018-05-21T07:57:09.976Z,18.85
2018-05-21T07:58:10.186Z,18.92
2018-05-21T07:59:10.001Z,18.92
2018-05-21T08:00:10.059Z,18.95
2018-05-21T08:01:09.991Z,18.98
2018-05-21T08:02:10.031Z,19.01
2018-05-21T08:03:10.018Z,19.02
2018-05-21T08:04:10.061Z,19.09
2018-05-21T08:05:10.130Z,19.1
2018-05-21T08:06:10.001Z,19.1
2018-05-21T08:07:10.007Z,19.1
2018-05-21T08:08:10.004Z,19.12
2018-05-21T08:09:10.058Z,19.13
2018-05-21T08:10:10.041Z,19.17
2018-05-21T08:11:09.990Z,19.19
2018-05-21T08:12:09.985Z,19.29
2018-05-21T08:13:10.027Z,19.3
2018-05-21T08:14:09.966Z,19.37
2018-05-21T08:15:10.218Z,19.43
2018-05-21T08:16:09.965Z,19.43
2018-05-21T08:17:09.986Z,19.47
2018-05-21T08:18:09.963Z,19.49
2018-05-21T08:19:09.970Z,19.5
2018-05-21T08:20:09.966Z,19.53
2018-05-21T08:21:09.987Z,19.51
2018-05-21T08:22:10.364Z,19.5
2018-05-21T08:23:10.033Z,19.51
2018-05-21T08:24:10.006Z,19.51
2018-05-21T08:25:10.026Z,19.53
2018-05-21T08:26:10.000Z,19.56
2018-05-21T08:27:10.023Z,19.56
2018-05-21T08:28:10.002Z,19.57
2018-05-21T08:29:09.983Z,19.62
2018-05-21T08:30:09.983Z,19.61
2018-05-21T08:31:10.024Z,19.6
2018-05-21T08:32:09.958Z,19.67
2018-05-21T08:33:09.997Z,19.68
2018-05-21T08:34:09.988Z,19.7
2018-05-21T08:35:09.971Z,19.72
2018-05-21T08:36:10.830Z,19.75
2018-05-21T08:37:09.991Z,19.74
2018-05-21T08:38:10.020Z,19.79
2018-05-21T08:39:10.373Z,19.77
2018-05-21T08:40:09.969Z,19.74
2018-05-21T08:41:09.989Z,19.75
2018-05-21T08:42:10.020Z,19.79
2018-05-21T08:43:10.063Z,19.85
2018-05-21T08:44:09.996Z,19.85
2018-05-21T08:45:10.642Z,19.89
2018-05-21T08:46:09.982Z,19.92
2018-05-21T08:47:10.047Z,19.96
2018-05-21T08:48:10.029Z,19.96
2018-05-21T08:49:10.005Z,19.96
2018-05-21T08:50:10.033Z,19.96
2018-05-21T08:51:09.980Z,20.04
2018-05-21T08:52:09.990Z,20.04
2018-05-21T08:53:10.191Z,20.11
2018-05-21T08:54:10.211Z,20.16
2018-05-21T08:55:10.257Z,20.15
2018-05-21T08:56:10.055Z,20.15
2018-05-21T08:57:10.024Z,20.12
2018-05-21T08:58:10.004Z,20.13
2018-05-21T08:59:10.053Z,20.13
2018-05-21T09:00:10.098Z,20.11
2018-05-21T09:01:10.013Z,20.09
2018-05-21T09:02:10.022Z,20.09
2018-05-21T09:03:10.027Z,20.11
2018-05-21T09:04:10.004Z,20.06
2018-05-21T09:05:10.032Z,20.06
2018-05-21T09:06:10.024Z,20.09
2018-05-21T09:07:10.379Z,20.11
2018-05-21T09:08:10.039Z,20.11
2018-05-21T09:09:10.063Z,20.11
2018-05-21T09:10:10.326Z,20.06
2018-05-21T09:11:10.005Z,20.06
2018-05-21T09:12:10.027Z,20.02
2018-05-21T09:13:10.046Z,19.99
2018-05-21T09:14:10.189Z,20.04
2018-05-21T09:15:10.010Z,19.99
2018-05-21T09:16:10.024Z,19.96
2018-05-21T09:17:10.040Z,19.95
2018-05-21T09:18:10.204Z,19.96
2018-05-21T09:19:10.049Z,19.99
2018-05-21T09:20:10.051Z,20.01
2018-05-21T09:21:10.003Z,20.08
2018-05-21T09:22:10.007Z,20.08
2018-05-21T09:23:10.017Z,20.12
2018-05-21T09:24:10.009Z,20.16
2018-05-21T09:25:10.043Z,20.19
2018-05-21T09:26:10.572Z,20.24
2018-05-21T09:27:10.013Z,20.27
2018-05-21T09:28:09.999Z,20.27
2018-05-21T09:29:10.024Z,20.34
2018-05-21T09:30:10.061Z,20.43
2018-05-21T09:31:10.231Z,20.51
2018-05-21T09:32:10.018Z,20.52
2018-05-21T09:33:10.052Z,20.58
2018-05-21T09:34:10.125Z,20.54
2018-05-21T09:35:10.013Z,20.57
2018-05-21T09:36:10.137Z,20.54
2018-05-21T09:37:10.054Z,20.58
2018-05-21T09:38:10.077Z,20.58
2018-05-21T09:39:10.070Z,20.68
2018-05-21T09:40:10.035Z,20.7
2018-05-21T09:41:10.014Z,20.77
2018-05-21T09:42:10.026Z,20.82
2018-05-21T09:43:10.043Z,20.81
2018-05-21T09:44:10.067Z,20.87
2018-05-21T09:45:10.047Z,20.89
2018-05-21T09:46:10.036Z,20.92
2018-05-21T09:47:10.037Z,20.95
2018-05-21T09:48:10.088Z,21.03
2018-05-21T09:49:10.049Z,21.03
2018-05-21T09:50:10.054Z,21.06
2018-05-21T09:51:10.104Z,21.12
2018-05-21T09:52:10.109Z,21.2
2018-05-21T09:53:10.057Z,21.27
2018-05-21T09:54:10.039Z,21.32
2018-05-21T09:55:10.015Z,21.32
2018-05-21T09:56:10.026Z,21.36
2018-05-21T09:57:10.027Z,21.4
2018-05-21T09:58:10.065Z,21.44
2018-05-21T09:59:10.082Z,21.43
2018-05-21T10:00:10.034Z,21.4
2018-05-21T10:01:10.216Z,21.41
2018-05-21T10:02:10.068Z,21.43
2018-05-21T10:03:10.054Z,21.47
2018-05-21T10:04:10.139Z,21.51
2018-05-21T10:05:10.137Z,21.56
2018-05-21T10:06:10.070Z,21.65
2018-05-21T10:07:10.161Z,21.54
2018-05-21T10:08:10.056Z,21.58
2018-05-21T10:09:10.176Z,21.54
2018-05-21T10:10:10.038Z,21.58
2018-05-21T10:11:10.077Z,21.58
2018-05-21T10:12:11.556Z,21.57
2018-05-21T10:13:10.027Z,21.62
2018-05-21T10:14:10.115Z,21.65
2018-05-21T10:15:10.207Z,21.77
2018-05-21T10:16:10.032Z,21.77
2018-05-21T10:17:10.352Z,21.81
2018-05-21T10:18:10.257Z,21.85
2018-05-21T10:19:10.086Z,21.84
2018-05-21T10:20:10.251Z,21.88
2018-05-21T10:21:10.247Z,21.95
2018-05-21T10:22:10.251Z,21.95
2018-05-21T10:23:10.160Z,21.95
2018-05-21T10:24:10.200Z,21.92
2018-05-21T10:25:10.177Z,21.94
2018-05-21T10:26:10.336Z,21.89
2018-05-21T10:27:10.207Z,21.96
2018-05-21T10:28:10.206Z,22.02
2018-05-21T10:29:10.206Z,22.05
2018-05-21T10:30:10.247Z,22.05
2018-05-21T10:31:10.211Z,22.11
2018-05-21T10:32:10.226Z,22.11
2018-05-21T10:33:10.882Z,22.11
2018-05-21T10:34:10.264Z,22.15
2018-05-21T10:35:10.172Z,22.12
2018-05-21T10:36:10.813Z,22.15
2018-05-21T10:37:10.579Z,22.17
2018-05-21T10:38:10.261Z,22.22
2018-05-21T10:39:10.169Z,22.26
2018-05-21T10:40:10.269Z,22.24
2018-05-21T10:41:10.180Z,22.3
2018-05-21T10:42:10.186Z,22.3
2018-05-21T10:43:10.050Z,22.36
2018-05-21T10:44:10.215Z,22.46
2018-05-21T10:45:10.280Z,22.48
2018-05-21T10:46:10.062Z,22.57
2018-05-21T10:47:10.216Z,22.51
2018-05-21T10:48:10.110Z,22.43
2018-05-21T10:49:10.295Z,22.46
2018-05-21T10:50:10.136Z,22.47
2018-05-21T10:51:10.080Z,22.54
2018-05-21T10:52:10.088Z,22.54
2018-05-21T10:53:10.170Z,22.51
2018-05-21T10:54:10.090Z,22.53
2018-05-21T10:55:10.312Z,22.56
2018-05-21T10:56:10.139Z,22.6
2018-05-21T10:57:10.140Z,22.61
2018-05-21T10:58:10.124Z,22.7
2018-05-21T10:59:10.139Z,22.68
2018-05-21T11:00:10.176Z,22.76
2018-05-21T11:01:10.066Z,22.78
2018-05-21T11:02:10.115Z,22.76
2018-05-21T11:03:10.070Z,22.76
2018-05-21T11:04:10.098Z,22.78
2018-05-21T11:05:10.095Z,22.89
2018-05-21T11:06:10.074Z,22.95
2018-05-21T11:07:10.082Z,22.98
2018-05-21T11:08:10.110Z,23.07
2018-05-21T11:09:10.085Z,23.12
2018-05-21T11:10:10.057Z,23.09
2018-05-21T11:11:10.099Z,23.11
2018-05-21T11:12:10.291Z,23.09
2018-05-21T11:13:10.154Z,23.16
2018-05-21T11:14:10.101Z,23.18
2018-05-21T11:15:10.061Z,23.23
2018-05-21T11:16:10.064Z,23.22
2018-05-21T11:17:10.099Z,23.27
2018-05-21T11:18:10.099Z,23.29
2018-05-21T11:19:10.240Z,23.29
2018-05-21T11:20:10.240Z,23.39
2018-05-21T11:21:10.098Z,23.41
2018-05-21T11:22:10.074Z,23.46
2018-05-21T11:23:10.086Z,23.47
2018-05-21T11:24:10.139Z,23.5
2018-05-21T11:25:10.179Z,23.53
2018-05-21T11:26:10.126Z,23.56
2018-05-21T11:27:10.100Z,23.51
2018-05-21T11:28:10.118Z,23.5
2018-05-21T11:29:10.169Z,23.41
2018-05-21T11:30:10.829Z,23.41
2018-05-21T11:31:10.315Z,23.4
2018-05-21T11:32:10.093Z,23.46
2018-05-21T11:33:10.117Z,23.5
2018-05-21T11:34:10.097Z,23.41
2018-05-21T11:35:10.190Z,23.48
2018-05-21T11:36:10.176Z,23.57
2018-05-21T11:37:10.090Z,23.62
2018-05-21T11:38:10.081Z,23.64
2018-05-21T11:39:10.172Z,23.68
2018-05-21T11:40:10.136Z,23.67
2018-05-21T11:41:10.132Z,23.74
2018-05-21T11:42:10.114Z,23.85
2018-05-21T11:43:10.076Z,23.8
2018-05-21T11:44:10.092Z,23.84
2018-05-21T11:45:10.153Z,23.82
2018-05-21T11:46:10.176Z,23.8
2018-05-21T11:47:10.105Z,23.87
2018-05-21T11:48:10.121Z,23.81
2018-05-21T11:49:10.084Z,23.82
2018-05-21T11:50:10.202Z,23.85
2018-05-21T11:51:10.259Z,23.88
2018-05-21T11:52:10.116Z,23.96
2018-05-21T11:53:10.146Z,24.01
2018-05-21T11:54:10.224Z,24.02
2018-05-21T11:55:10.279Z,24.06
2018-05-21T11:56:10.120Z,24.1
2018-05-21T11:57:10.329Z,24.13
2018-05-21T11:58:10.302Z,24.15
2018-05-21T11:59:10.108Z,24.19
2018-05-21T12:00:10.131Z,24.15
2018-05-21T12:01:10.115Z,24.16
2018-05-21T12:02:10.107Z,24.21
2018-05-21T12:03:10.138Z,24.23
2018-05-21T12:04:11.111Z,24.32
2018-05-21T12:05:10.124Z,24.29
2018-05-21T12:06:10.133Z,24.27
2018-05-21T12:07:10.198Z,24.23
2018-05-21T12:08:10.121Z,24.26
2018-05-21T12:09:10.117Z,24.29
2018-05-21T12:10:10.137Z,24.32
2018-05-21T12:11:15.303Z,24.35
2018-05-21T12:12:10.128Z,24.39
2018-05-21T12:13:10.115Z,24.4
2018-05-21T12:14:10.134Z,24.43
2018-05-21T12:15:10.141Z,24.33
2018-05-21T12:16:10.124Z,24.32
2018-05-21T12:17:10.155Z,24.33
2018-05-21T12:18:10.121Z,24.35
2018-05-21T12:19:10.132Z,24.37
2018-05-21T12:20:10.146Z,24.53
2018-05-21T12:21:10.253Z,24.61
2018-05-21T12:22:10.314Z,24.5
2018-05-21T12:23:10.170Z,24.47
2018-05-21T12:24:10.200Z,24.48
2018-05-21T12:25:10.124Z,24.5
2018-05-21T12:26:10.148Z,24.57
2018-05-21T12:27:10.226Z,24.61
2018-05-21T12:28:10.176Z,24.6
2018-05-21T12:29:10.223Z,24.61
2018-05-21T12:30:10.196Z,24.64
2018-05-21T12:31:10.332Z,24.77
2018-05-21T12:32:10.213Z,24.82
2018-05-21T12:33:10.198Z,24.81
2018-05-21T12:34:10.566Z,24.78
2018-05-21T12:35:10.154Z,24.79
2018-05-21T12:36:10.161Z,24.78
2018-05-21T12:37:10.258Z,24.83
2018-05-21T12:38:10.365Z,24.86
2018-05-21T12:39:10.207Z,24.91
2018-05-21T12:40:10.191Z,24.91
2018-05-21T12:41:10.142Z,24.98
2018-05-21T12:42:10.192Z,24.97
2018-05-21T12:43:10.198Z,24.91
2018-05-21T12:44:10.451Z,24.92
2018-05-21T12:45:10.164Z,24.99
2018-05-21T12:46:10.224Z,25.06
2018-05-21T12:47:10.122Z,25.12
2018-05-21T12:48:10.170Z,24.99
2018-05-21T12:49:10.239Z,24.86
2018-05-21T12:50:10.147Z,24.58
2018-05-21T12:51:10.136Z,24.58
2018-05-21T12:52:10.188Z,24.7
2018-05-21T12:53:10.138Z,24.77
2018-05-21T12:54:10.155Z,24.82
2018-05-21T12:55:10.302Z,24.85